Time;durP1;ratioP1;P1;durP2;ratioP2;P2;SDS_P1;SDS_P2;PMS_P1;PMS_P2;Temp;Humidity;BMP_temperature;BMP_pressure;BME280_temperature;BME280_humidity;BME280_pressure;Samples;Min_cycle;Max_cycle;Signal;HPM_P1;HPM_P2
2022/01/09 00:01:09;;;;;;;;;;;3.90;99.90;;;;;;5051379;28;20351;-89
2022/01/09 00:03:39;;;;;;;;;;;4.60;99.90;;;;;;5041407;28;20007;-90
2022/01/09 00:06:05;;;;;;;;;;;4.00;99.90;;;;;;5059490;28;19924;-88
2022/01/09 00:08:30;;;;;;;;;;;4.10;99.90;;;;;;5045550;28;20367;-90
2022/01/09 00:10:56;;;;;;;;;;;5.20;99.90;;;;;;5078322;28;19920;-90
2022/01/09 00:13:30;;;;;;;;;;;4.40;99.90;;;;;;5061591;28;19931;-90
2022/01/09 00:15:58;;;;;;;;;;;4.00;99.90;;;;;;5063128;28;19978;-90
2022/01/09 00:18:36;;;;;;;;;;;;;;;;;;;;;
2022/01/09 00:21:14;;;;;;;;;;;5.00;99.90;;;;;;5062942;28;19920;-90
2022/01/09 00:23:42;;;;;;;;;;;4.60;99.90;;;;;;5063386;28;19924;-89
2022/01/09 00:26:08;;;;;;;;;;;4.50;99.90;;;;;;5078311;28;19920;-89
2022/01/09 00:28:46;;;;;;;;;;;;;;;;;;;;;
2022/01/09 00:31:17;;;;;;;;;;;5.20;99.90;;;;;;5062528;28;19924;-90
2022/01/09 00:33:45;;;;;;;;;;;2.90;99.90;;;;;;5061628;28;20010;-89
2022/01/09 00:36:13;;;;;;;;;;;3.70;99.90;;;;;;5061464;28;20405;-89
2022/01/09 00:38:44;;;;;;;;;;;4.00;99.90;;;;;;5044950;28;19970;-89
2022/01/09 00:41:15;;;;;;;;;;;3.60;99.90;;;;;;5044729;28;19920;-89
2022/01/09 00:43:41;;;;;;;;;;;4.40;99.90;;;;;;5061770;28;19931;-89
2022/01/09 00:46:09;;;;;;;;;;;4.60;99.90;;;;;;5044699;28;19920;-90
2022/01/09 00:48:37;;;;;;;;;;;4.70;99.90;;;;;;5044561;28;20189;-91
2022/01/09 00:51:03;;;;;;;;;;;5.10;99.90;;;;;;5061482;28;19927;-89
2022/01/09 00:53:28;;;;;;;;;;;5.20;99.90;;;;;;5043956;28;20014;-90
2022/01/09 00:55:54;;;;;;;;;;;4.30;99.90;;;;;;5044293;28;19920;-89
2022/01/09 00:58:25;;;;;;;;;;;4.40;99.90;;;;;;5044143;28;19982;-90
2022/01/09 01:00:58;;;;;;;;;;;4.00;99.90;;;;;;5044503;28;19920;-90
2022/01/09 01:03:33;;;;;;;;;;;;;;;;;;;;;
2022/01/09 01:06:01;;;;;;;;;;;4.20;99.90;;;;;;5062230;28;19920;-89
2022/01/09 01:08:29;;;;;;;;;;;4.60;99.90;;;;;;5044448;28;20389;-89
2022/01/09 01:11:13;;;;;;;;;;;4.00;99.90;;;;;;5076816;28;19974;-89
2022/01/09 01:13:41;;;;;;;;;;;4.80;99.90;;;;;;5063442;28;19920;-89
2022/01/09 01:16:06;;;;;;;;;;;3.80;99.90;;;;;;5061078;28;19927;-89
2022/01/09 01:18:45;;;;;;;;;;;;;;;;;;;;;
2022/01/09 01:21:23;;;;;;;;;;;;;;;;;;;;;
2022/01/09 01:24:00;;;;;;;;;;;;;;;;;;;;;
2022/01/09 01:29:19;;;;;;;;;;;4.60;99.90;;;;;;5045736;28;19920;-89
2022/01/09 01:31:47;;;;;;;;;;;4.00;99.90;;;;;;5076557;28;19959;-89
2022/01/09 01:34:15;;;;;;;;;;;5.00;99.90;;;;;;5043310;28;19969;-89
2022/01/09 01:36:41;;;;;;;;;;;4.30;99.90;;;;;;5060219;28;19973;-91
2022/01/09 01:39:26;;;;;;;;;;;3.90;99.90;;;;;;5060088;28;19920;-91
2022/01/09 01:41:54;;;;;;;;;;;4.40;99.90;;;;;;5076511;28;20424;-90
2022/01/09 01:44:22;;;;;;;;;;;4.50;99.90;;;;;;5043357;28;19924;-89
2022/01/09 01:46:55;;;;;;;;;;;4.10;99.90;;;;;;5060058;28;19973;-90
2022/01/09 01:49:26;;;;;;;;;;;4.00;99.90;;;;;;5043067;28;19919;-90
2022/01/09 01:51:54;;;;;;;;;;;4.90;99.90;;;;;;5059899;28;20381;-90
2022/01/09 01:54:24;;;;;;;;;;;5.00;99.90;;;;;;5060088;28;19920;-89
2022/01/09 01:57:11;;;;;;;;;;;4.60;99.90;;;;;;5060951;28;19920;-89
2022/01/09 01:59:36;;;;;;;;;;;4.10;99.90;;;;;;5061861;28;20389;-89
2022/01/09 02:02:07;;;;;;;;;;;4.30;99.90;;;;;;5076021;28;19920;-89
2022/01/09 02:04:56;;;;;;;;;;;4.30;99.90;;;;;;5059197;28;19939;-89
2022/01/09 02:07:25;;;;;;;;;;;4.80;99.90;;;;;;5061643;28;19972;-90
2022/01/09 02:09:56;;;;;;;;;;;4.00;99.90;;;;;;5059592;28;20274;-89
2022/01/09 02:12:29;;;;;;;;;;;4.40;99.90;;;;;;5059930;28;19920;-89
2022/01/09 02:14:57;;;;;;;;;;;4.00;99.90;;;;;;5043701;28;19920;-89
2022/01/09 02:17:25;;;;;;;;;;;5.10;99.90;;;;;;5058997;28;20302;-89
2022/01/09 02:20:07;;;;;;;;;;;;;;;;;;;;;
2022/01/09 02:22:38;;;;;;;;;;;4.20;99.90;;;;;;5061041;28;19928;-90
2022/01/09 02:25:08;;;;;;;;;;;4.20;99.90;;;;;;5042752;28;19920;-89
2022/01/09 02:27:34;;;;;;;;;;;4.30;99.90;;;;;;5042656;28;19920;-90
2022/01/09 02:30:10;;;;;;;;;;;4.40;99.90;;;;;;5058612;28;19969;-90
2022/01/09 02:32:38;;;;;;;;;;;3.10;99.90;;;;;;5060252;28;19966;-90
2022/01/09 02:35:14;;;;;;;;;;;4.40;99.90;;;;;;5042971;28;19927;-91
2022/01/09 02:37:40;;;;;;;;;;;4.30;99.90;;;;;;5075719;28;19966;-89
2022/01/09 02:40:14;;;;;;;;;;;4.60;99.90;;;;;;5075718;28;19924;-90
2022/01/09 02:42:40;;;;;;;;;;;4.30;99.90;;;;;;5058872;28;19978;-89
2022/01/09 02:45:15;;;;;;;;;;;;;;;;;;;;;
2022/01/09 02:47:44;;;;;;;;;;;4.30;99.90;;;;;;5060230;28;19991;-90
2022/01/09 02:53:16;;;;;;;;;;;5.10;99.90;;;;;;5062319;28;19974;-90
2022/01/09 02:55:49;;;;;;;;;;;4.90;99.90;;;;;;5059166;28;19920;-90
2022/01/09 02:58:15;;;;;;;;;;;5.70;99.90;;;;;;5043135;28;20012;-90
2022/01/09 03:00:48;;;;;;;;;;;4.20;99.90;;;;;;5042118;28;19966;-90
2022/01/09 03:03:23;;;;;;;;;;;;;;;;;;;;;
2022/01/09 03:05:52;;;;;;;;;;;5.60;99.90;;;;;;5060135;28;19920;-89
2022/01/09 03:08:25;;;;;;;;;;;4.50;99.90;;;;;;5042723;28;19920;-91
2022/01/09 03:10:51;;;;;;;;;;;5.70;99.90;;;;;;5042231;28;20312;-90
2022/01/09 03:13:16;;;;;;;;;;;4.50;99.90;;;;;;5058878;28;19965;-90
2022/01/09 03:15:44;;;;;;;;;;;5.10;99.90;;;;;;5058896;28;20026;-91
2022/01/09 03:18:12;;;;;;;;;;;5.00;99.90;;;;;;5041674;28;20439;-90
2022/01/09 03:20:41;;;;;;;;;;;5.50;99.90;;;;;;5058656;28;20002;-91
2022/01/09 03:23:15;;;;;;;;;;;4.90;99.90;;;;;;5042083;28;19924;-90
2022/01/09 03:25:51;;;;;;;;;;;5.10;99.90;;;;;;5043097;28;19964;-90
2022/01/09 03:28:19;;;;;;;;;;;5.10;99.90;;;;;;5059809;28;19969;-90
2022/01/09 03:30:45;;;;;;;;;;;4.70;99.90;;;;;;5058645;28;19931;-89
2022/01/09 03:33:13;;;;;;;;;;;6.10;99.90;;;;;;5041709;28;19921;-89
2022/01/09 03:35:41;;;;;;;;;;;5.10;99.90;;;;;;5041828;28;19935;-90
2022/01/09 03:38:07;;;;;;;;;;;5.40;99.90;;;;;;5041995;28;20007;-90
2022/01/09 03:40:35;;;;;;;;;;;6.10;99.90;;;;;;5041668;28;20008;-90
2022/01/09 03:43:00;;;;;;;;;;;6.20;99.90;;;;;;5062139;28;20378;-90
2022/01/09 03:45:26;;;;;;;;;;;4.50;99.90;;;;;;5045528;28;19924;-89
2022/01/09 03:47:52;;;;;;;;;;;6.00;99.90;;;;;;5062297;28;19927;-90
2022/01/09 03:50:17;;;;;;;;;;;5.10;99.90;;;;;;5062040;28;19920;-90
2022/01/09 03:52:43;;;;;;;;;;;5.80;99.90;;;;;;5045317;28;20263;-90
2022/01/09 03:55:17;;;;;;;;;;;5.30;99.90;;;;;;5061776;28;19927;-90
2022/01/09 03:57:43;;;;;;;;;;;6.10;99.90;;;;;;5045820;28;19920;-90
2022/01/09 04:00:12;;;;;;;;;;;6.30;99.90;;;;;;5061716;28;20372;-90
2022/01/09 04:02:38;;;;;;;;;;;5.60;99.90;;;;;;5061675;28;19974;-90
2022/01/09 04:05:03;;;;;;;;;;;4.80;99.90;;;;;;5078656;28;19920;-89
2022/01/09 04:07:32;;;;;;;;;;;5.50;99.90;;;;;;5045163;28;19934;-90
2022/01/09 04:10:00;;;;;;;;;;;5.60;99.90;;;;;;5062317;28;19943;-90
2022/01/09 04:12:35;;;;;;;;;;;6.50;99.90;;;;;;5045341;28;19986;-90
2022/01/09 04:15:09;;;;;;;;;;;5.60;99.90;;;;;;5061843;28;20290;-90
2022/01/09 04:20:12;;;;;;;;;;;5.80;99.90;;;;;;5062930;28;19935;-90
2022/01/09 04:22:38;;;;;;;;;;;5.70;99.90;;;;;;5061385;28;19924;-90
2022/01/09 04:25:04;;;;;;;;;;;5.80;99.90;;;;;;5044568;28;19920;-90
2022/01/09 04:27:32;;;;;;;;;;;5.70;99.90;;;;;;5045140;28;19920;-89
2022/01/09 04:29:57;;;;;;;;;;;6.50;99.90;;;;;;5061674;28;19920;-90
2022/01/09 04:32:25;;;;;;;;;;;5.80;99.90;;;;;;5061206;28;19934;-91
2022/01/09 04:34:51;;;;;;;;;;;5.60;99.90;;;;;;5044750;28;19960;-89
2022/01/09 04:37:18;;;;;;;;;;;6.30;99.90;;;;;;5077788;28;19920;-89
2022/01/09 04:39:47;;;;;;;;;;;7.10;99.90;;;;;;5045013;28;19920;-90
2022/01/09 04:42:13;;;;;;;;;;;5.90;99.90;;;;;;5044699;28;19931;-90
2022/01/09 04:44:38;;;;;;;;;;;5.50;99.90;;;;;;5061029;28;19920;-89
2022/01/09 04:47:12;;;;;;;;;;;4.90;99.90;;;;;;5044347;28;19927;-90
2022/01/09 04:49:40;;;;;;;;;;;5.60;99.90;;;;;;5045217;28;19921;-90
2022/01/09 04:52:13;;;;;;;;;;;5.50;99.90;;;;;;5044128;28;20080;-90
2022/01/09 04:54:41;;;;;;;;;;;5.80;99.90;;;;;;5045791;28;19920;-89
2022/01/09 04:57:09;;;;;;;;;;;6.40;99.90;;;;;;5060866;28;19921;-89
2022/01/09 04:59:35;;;;;;;;;;;5.40;99.90;;;;;;5044443;28;19920;-90
2022/01/09 05:02:03;;;;;;;;;;;6.90;99.90;;;;;;5060913;28;19927;-90
2022/01/09 05:04:28;;;;;;;;;;;5.70;99.90;;;;;;5077218;28;19931;-89
2022/01/09 05:06:56;;;;;;;;;;;5.60;99.90;;;;;;5060650;28;20298;-90
2022/01/09 05:09:22;;;;;;;;;;;5.90;99.90;;;;;;5043913;28;19926;-90
2022/01/09 05:11:55;;;;;;;;;;;5.60;99.90;;;;;;5043731;28;19920;-90
2022/01/09 05:14:23;;;;;;;;;;;5.70;99.90;;;;;;5043705;28;19920;-90
2022/01/09 05:16:51;;;;;;;;;;;6.40;99.90;;;;;;5060802;28;19924;-90
2022/01/09 05:19:22;;;;;;;;;;;5.50;99.90;;;;;;5060468;28;19973;-90
2022/01/09 05:21:48;;;;;;;;;;;6.60;99.90;;;;;;5060768;28;19920;-90
2022/01/09 05:24:16;;;;;;;;;;;5.10;99.90;;;;;;5043653;28;19928;-89
2022/01/09 05:26:44;;;;;;;;;;;5.40;99.90;;;;;;5061250;28;19920;-90
2022/01/09 05:29:10;;;;;;;;;;;6.30;99.90;;;;;;5043633;28;20366;-90
2022/01/09 05:31:35;;;;;;;;;;;6.50;99.90;;;;;;5043494;28;19920;-90
2022/01/09 05:34:06;;;;;;;;;;;5.40;99.90;;;;;;5044099;28;19966;-90
2022/01/09 05:36:39;;;;;;;;;;;5.40;99.90;;;;;;5043964;28;19927;-90
2022/01/09 05:39:14;;;;;;;;;;;5.80;99.90;;;;;;5060159;28;19920;-90
2022/01/09 05:41:42;;;;;;;;;;;5.00;99.90;;;;;;5061192;28;19931;-90
2022/01/09 05:44:10;;;;;;;;;;;5.30;99.90;;;;;;5060421;28;19924;-90
2022/01/09 05:46:43;;;;;;;;;;;6.40;99.90;;;;;;5043680;28;20016;-91
2022/01/09 05:49:11;;;;;;;;;;;4.90;99.90;;;;;;5060923;28;19973;-90
2022/01/09 05:51:39;;;;;;;;;;;6.20;99.90;;;;;;5043338;28;19927;-90
2022/01/09 05:54:05;;;;;;;;;;;4.90;99.90;;;;;;5060058;28;19973;-90
2022/01/09 05:56:39;;;;;;;;;;;6.60;99.90;;;;;;5059802;28;19924;-90
2022/01/09 05:59:07;;;;;;;;;;;5.20;99.90;;;;;;5060919;28;19926;-90
2022/01/09 06:01:35;;;;;;;;;;;5.10;99.90;;;;;;5060389;28;20338;-90
2022/01/09 06:04:03;;;;;;;;;;;5.70;99.90;;;;;;5059088;28;19963;-90
2022/01/09 06:06:28;;;;;;;;;;;4.90;99.90;;;;;;5043171;28;19920;-90
2022/01/09 06:08:54;;;;;;;;;;;5.80;99.90;;;;;;5059819;28;19927;-90
2022/01/09 06:11:37;;;;;;;;;;;4.90;99.90;;;;;;5076198;28;19920;-89
2022/01/09 06:14:05;;;;;;;;;;;4.90;99.90;;;;;;5045990;28;19924;-90
2022/01/09 06:16:30;;;;;;;;;;;6.00;99.90;;;;;;5059447;28;19927;-90
2022/01/09 06:18:56;;;;;;;;;;;4.80;99.90;;;;;;5042609;28;19920;-90
2022/01/09 06:21:33;;;;;;;;;;;3.70;99.90;;;;;;5042920;28;20016;-90
2022/01/09 06:24:01;;;;;;;;;;;5.80;99.90;;;;;;5043727;28;19924;-90
2022/01/09 06:26:29;;;;;;;;;;;5.30;99.90;;;;;;5043170;28;19920;-90
2022/01/09 06:28:55;;;;;;;;;;;4.80;99.90;;;;;;5059479;28;19927;-90
2022/01/09 06:31:20;;;;;;;;;;;5.90;99.90;;;;;;5042460;28;19920;-89
2022/01/09 06:33:46;;;;;;;;;;;5.40;99.90;;;;;;5042327;28;19926;-90
2022/01/09 06:36:14;;;;;;;;;;;5.90;99.90;;;;;;5059048;28;19920;-91
2022/01/09 06:38:47;;;;;;;;;;;4.80;99.90;;;;;;5042298;28;19926;-92
2022/01/09 06:41:13;;;;;;;;;;;5.40;99.90;;;;;;5059335;28;19971;-91
2022/01/09 06:43:48;;;;;;;;;;;;;;;;;;;;;
2022/01/09 06:46:17;;;;;;;;;;;5.10;99.90;;;;;;5061380;28;19928;-90
2022/01/09 06:48:52;;;;;;;;;;;5.20;99.90;;;;;;5059156;28;19924;-90
2022/01/09 06:51:31;;;;;;;;;;;5.00;99.90;;;;;;5042817;28;20358;-90
2022/01/09 06:54:02;;;;;;;;;;;5.40;99.90;;;;;;5060294;28;19920;-91
2022/01/09 06:56:30;;;;;;;;;;;5.10;99.90;;;;;;5042564;28;19920;-90
2022/01/09 06:59:03;;;;;;;;;;;5.20;99.90;;;;;;5059211;28;19920;-90
2022/01/09 07:01:36;;;;;;;;;;;5.20;99.90;;;;;;5042341;28;19920;-92
2022/01/09 07:04:10;;;;;;;;;;;4.70;99.90;;;;;;5058739;28;19924;-91
2022/01/09 07:06:41;;;;;;;;;;;5.10;99.90;;;;;;5059710;28;19924;-90
2022/01/09 07:09:12;;;;;;;;;;;4.50;99.90;;;;;;5042376;28;19920;-91
2022/01/09 07:11:45;;;;;;;;;;;5.30;99.90;;;;;;5042816;28;19920;-91
2022/01/09 07:14:14;;;;;;;;;;;4.90;99.90;;;;;;5043311;28;20023;-91
2022/01/09 07:16:39;;;;;;;;;;;5.80;99.90;;;;;;5046350;28;19920;-91
2022/01/09 07:19:08;;;;;;;;;;;5.20;99.90;;;;;;5062917;28;20398;-91
2022/01/09 07:21:54;;;;;;;;;;;4.70;99.90;;;;;;5046152;28;19969;-90
2022/01/09 07:24:46;;;;;;;;;;;;;;;;;;;;;
2022/01/09 07:27:15;;;;;;;;;;;5.30;99.90;;;;;;5064217;28;19924;-91
2022/01/09 07:29:43;;;;;;;;;;;5.30;99.90;;;;;;5046284;28;20023;-91
2022/01/09 07:32:26;;;;;;;;;;;4.60;99.90;;;;;;5045557;28;20378;-91
2022/01/09 07:35:01;;;;;;;;;;;;;;;;;;;;;
2022/01/09 07:37:30;;;;;;;;;;;5.30;99.90;;;;;;5064204;28;20349;-91
2022/01/09 07:42:51;;;;;;;;;;;5.10;99.90;;;;;;5054403;28;19974;-91
2022/01/09 07:45:24;;;;;;;;;;;5.20;99.90;;;;;;5046796;28;20014;-91
2022/01/09 07:48:06;;;;;;;;;;;4.50;99.90;;;;;;5046554;28;19920;-91
2022/01/09 07:50:55;;;;;;;;;;;4.60;99.90;;;;;;5063452;28;19975;-90
2022/01/09 07:53:28;;;;;;;;;;;5.20;99.90;;;;;;5064810;28;20015;-91
2022/01/09 07:56:06;;;;;;;;;;;;;;;;;;;;;
2022/01/09 07:58:35;;;;;;;;;;;4.70;99.90;;;;;;5063742;28;19924;-91
2022/01/09 08:01:00;;;;;;;;;;;4.10;99.90;;;;;;5045646;28;19920;-91
2022/01/09 08:03:26;;;;;;;;;;;3.80;99.90;;;;;;5045166;28;19931;-90
2022/01/09 08:05:54;;;;;;;;;;;4.70;99.90;;;;;;5045560;28;19974;-90
2022/01/09 08:08:25;;;;;;;;;;;4.70;99.90;;;;;;5045276;28;19974;-90
2022/01/09 08:10:53;;;;;;;;;;;5.00;99.90;;;;;;5045841;28;19924;-91
2022/01/09 08:13:23;;;;;;;;;;;4.20;99.90;;;;;;5062156;28;20049;-91
2022/01/09 08:16:01;;;;;;;;;;;;;;;;;;;;;
2022/01/09 08:18:53;;;;;;;;;;;5.40;99.90;;;;;;5047837;28;19924;-93
2022/01/09 08:21:23;;;;;;;;;;;4.20;99.90;;;;;;5005611;28;19921;-92
2022/01/09 08:24:27;;;;;;;;;;;4.50;99.90;;;;;;5041173;28;19925;-93
2022/01/09 08:27:31;;;;;;;;;;;3.20;99.90;;;;;;5040238;28;19924;-92
2022/01/09 08:30:18;;;;;;;;;;;4.50;99.90;;;;;;5042817;28;19968;-93
2022/01/09 08:33:02;;;;;;;;;;;;;;;;;;;;;
2022/01/09 08:38:45;;;;;;;;;;;4.10;99.90;;;;;;5057171;28;20019;-91
2022/01/09 08:41:30;;;;;;;;;;;4.30;99.90;;;;;;5025190;28;19950;-91
2022/01/09 08:44:26;;;;;;;;;;;;;;;;;;;;;
2022/01/09 08:47:41;;;;;;;;;;;;;;;;;;;;;
2022/01/09 08:50:20;;;;;;;;;;;5.00;99.90;;;;;;5020786;28;19920;-92
2022/01/09 08:53:20;;;;;;;;;;;;;;;;;;;;;
2022/01/09 08:55:54;;;;;;;;;;;4.60;99.90;;;;;;5030900;28;19943;-92
2022/01/09 08:58:28;;;;;;;;;;;4.50;99.90;;;;;;5026039;28;19920;-91
2022/01/09 09:01:04;;;;;;;;;;;4.50;99.90;;;;;;5023385;28;20019;-91
2022/01/09 09:03:32;;;;;;;;;;;4.20;99.90;;;;;;5039990;28;19928;-92
2022/01/09 09:06:05;;;;;;;;;;;4.30;99.90;;;;;;5023562;28;19927;-92
2022/01/09 09:08:41;;;;;;;;;;;5.00;99.90;;;;;;5025026;28;19920;-91
2022/01/09 09:11:14;;;;;;;;;;;4.30;99.90;;;;;;5023414;28;20389;-92
2022/01/09 09:13:42;;;;;;;;;;;4.00;99.90;;;;;;5024248;28;19921;-91
2022/01/09 09:16:10;;;;;;;;;;;4.30;99.90;;;;;;5039624;28;19974;-91
2022/01/09 09:18:52;;;;;;;;;;;4.30;99.90;;;;;;5041061;28;19931;-91
2022/01/09 09:21:19;;;;;;;;;;;4.80;99.90;;;;;;5044925;28;19972;-90
2022/01/09 09:23:45;;;;;;;;;;;4.40;99.90;;;;;;5042437;28;20366;-90
2022/01/09 09:26:16;;;;;;;;;;;4.30;99.90;;;;;;5042695;28;19927;-90
2022/01/09 09:28:42;;;;;;;;;;;4.40;99.90;;;;;;5043088;28;19949;-91
2022/01/09 09:31:25;;;;;;;;;;;5.90;99.90;;;;;;5042652;28;20002;-90
2022/01/09 09:33:51;;;;;;;;;;;5.00;99.90;;;;;;5043093;28;20020;-89
2022/01/09 09:36:39;;;;;;;;;;;4.00;99.90;;;;;;5042393;28;19981;-92
2022/01/09 09:39:17;;;;;;;;;;;5.40;99.90;;;;;;5059007;28;19940;-91
2022/01/09 09:41:54;;;;;;;;;;;5.40;99.90;;;;;;5059032;28;19927;-90
2022/01/09 09:44:39;;;;;;;;;;;4.80;99.90;;;;;;5043021;28;19924;-89
2022/01/09 09:47:25;;;;;;;;;;;4.80;99.90;;;;;;5058521;28;20006;-92
2022/01/09 09:49:56;;;;;;;;;;;4.80;99.90;;;;;;5042661;28;19931;-91
2022/01/09 09:52:32;;;;;;;;;;;;;;;;;;;;;
2022/01/09 09:55:01;;;;;;;;;;;4.40;99.90;;;;;;5056144;28;19927;-91
2022/01/09 09:57:29;;;;;;;;;;;5.10;99.90;;;;;;5038812;28;19920;-91
2022/01/09 10:00:10;;;;;;;;;;;4.90;99.90;;;;;;5022621;28;20370;-90
2022/01/09 10:02:51;;;;;;;;;;;4.60;99.90;;;;;;5038727;28;19921;-91
2022/01/09 10:05:42;;;;;;;;;;;4.70;99.90;;;;;;5022173;28;19920;-90
2022/01/09 10:08:11;;;;;;;;;;;4.70;99.90;;;;;;5029238;28;19920;-89
2022/01/09 10:10:37;;;;;;;;;;;4.60;99.90;;;;;;5021820;28;19989;-90
2022/01/09 10:13:10;;;;;;;;;;;4.80;99.90;;;;;;5038483;28;20367;-91
2022/01/09 10:16:02;;;;;;;;;;;4.70;99.90;;;;;;5021947;28;20394;-90
2022/01/09 10:18:55;;;;;;;;;;;4.70;99.90;;;;;;5034111;28;19983;-90
2022/01/09 10:21:23;;;;;;;;;;;4.80;99.90;;;;;;5039473;28;20433;-88
2022/01/09 10:24:14;;;;;;;;;;;;;;;;;;;;;
2022/01/09 10:26:46;;;;;;;;;;;4.80;99.90;;;;;;5039850;28;19925;-92
2022/01/09 10:29:14;;;;;;;;;;;4.70;99.90;;;;;;5022401;28;19940;-91
2022/01/09 10:31:51;;;;;;;;;;;4.60;99.90;;;;;;5038244;28;19927;-91
2022/01/09 10:34:37;;;;;;;;;;;5.00;99.90;;;;;;5022927;28;20322;-92
2022/01/09 10:37:24;;;;;;;;;;;5.40;99.90;;;;;;5037912;28;19928;-92
2022/01/09 10:40:00;;;;;;;;;;;4.90;99.90;;;;;;5040897;28;20002;-91
2022/01/09 10:42:43;;;;;;;;;;;;;;;;;;;;;
2022/01/09 10:45:25;;;;;;;;;;;5.10;99.90;;;;;;5039761;28;19970;-92
2022/01/09 10:47:55;;;;;;;;;;;5.20;99.90;;;;;;5022709;28;19924;-93
2022/01/09 10:50:39;;;;;;;;;;;5.30;99.90;;;;;;5022326;28;19931;-92
2022/01/09 10:53:17;;;;;;;;;;;5.50;99.90;;;;;;5023349;28;20305;-91
2022/01/09 10:58:36;;;;;;;;;;;5.50;99.90;;;;;;5041102;28;20340;-91
2022/01/09 11:01:46;;;;;;;;;;;;;;;;;;;;;
2022/01/09 11:04:22;;;;;;;;;;;5.60;99.90;;;;;;5025300;28;20371;-90
2022/01/09 11:06:53;;;;;;;;;;;6.40;99.90;;;;;;5039383;28;19921;-92
2022/01/09 11:09:26;;;;;;;;;;;5.90;99.90;;;;;;5021989;28;20450;-90
2022/01/09 11:12:01;;;;;;;;;;;6.20;99.90;;;;;;5022538;28;20015;-91
2022/01/09 11:14:55;;;;;;;;;;;;;;;;;;;;;
2022/01/09 11:17:44;;;;;;;;;;;7.40;99.90;;;;;;5039514;28;19924;-91
2022/01/09 11:20:11;;;;;;;;;;;5.20;99.90;;;;;;5057216;28;19921;-91
2022/01/09 11:22:47;;;;;;;;;;;6.00;99.90;;;;;;5021910;28;19920;-92
2022/01/09 11:25:38;;;;;;;;;;;6.20;99.90;;;;;;5023213;28;19977;-92
2022/01/09 11:28:12;;;;;;;;;;;5.90;99.90;;;;;;5023059;28;19920;-91
2022/01/09 11:30:58;;;;;;;;;;;;;;;;;;;;;
2022/01/09 11:33:24;;;;;;;;;;;6.00;99.90;;;;;;5039567;28;19921;-91
2022/01/09 11:39:19;;;;;;;;;;;6.20;99.90;;;;;;5047779;28;19927;-92
2022/01/09 11:42:25;;;;;;;;;;;6.70;99.90;;;;;;5038539;28;20327;-92
2022/01/09 11:45:02;;;;;;;;;;;;;;;;;;;;;
2022/01/09 11:47:53;;;;;;;;;;;7.20;99.90;;;;;;5054857;28;19927;-93
2022/01/09 11:50:43;;;;;;;;;;;7.10;99.90;;;;;;5037976;28;19928;-91
2022/01/09 11:53:24;;;;;;;;;;;7.30;99.90;;;;;;5022366;28;19921;-92
2022/01/09 11:59:07;;;;;;;;;;;;;;;;;;;;;
2022/01/09 12:01:36;;;;;;;;;;;7.20;99.90;;;;;;5054318;28;19931;-92
2022/01/09 12:04:23;;;;;;;;;;;7.90;99.90;;;;;;5041314;28;20007;-92
2022/01/09 12:07:10;;;;;;;;;;;7.70;99.90;;;;;;5043826;28;19920;-93
2022/01/09 12:09:41;;;;;;;;;;;8.40;99.90;;;;;;5043589;28;19925;-91
2022/01/09 12:12:09;;;;;;;;;;;7.50;99.90;;;;;;5025587;28;20203;-92
2022/01/09 12:15:03;;;;;;;;;;;7.50;99.90;;;;;;5025148;28;19947;-92
2022/01/09 12:17:40;;;;;;;;;;;7.30;99.90;;;;;;5041221;28;19967;-92
2022/01/09 12:20:17;;;;;;;;;;;7.20;99.90;;;;;;5041324;28;19920;-91
2022/01/09 12:23:04;;;;;;;;;;;7.10;99.90;;;;;;5041020;28;19974;-91
2022/01/09 12:25:35;;;;;;;;;;;7.60;99.90;;;;;;5041000;28;19971;-91
2022/01/09 12:28:04;;;;;;;;;;;6.90;99.90;;;;;;5040981;28;19970;-92
2022/01/09 12:30:40;;;;;;;;;;;;;;;;;;;;;
2022/01/09 12:33:15;;;;;;;;;;;7.50;99.90;;;;;;5057568;28;20341;-91
2022/01/09 12:36:01;;;;;;;;;;;6.70;99.90;;;;;;5025418;28;19920;-91
2022/01/09 12:38:30;;;;;;;;;;;7.10;99.90;;;;;;5044709;28;19920;-91
2022/01/09 12:41:25;;;;;;;;;;;6.10;99.90;;;;;;5024540;28;19927;-93
2022/01/09 12:44:06;;;;;;;;;;;;;;;;;;;;;
2022/01/09 12:46:45;;;;;;;;;;;7.30;99.90;;;;;;5042700;28;19921;-91
2022/01/09 12:55:36;;;;;;;;;;;;;;;;;;;;;
2022/01/09 12:58:10;;;;;;;;;;;6.20;99.90;;;;;;5048208;28;20337;-92
2022/01/09 13:03:47;;;;;;;;;;;6.20;99.90;;;;;;5037846;28;19975;-91
2022/01/09 13:06:53;;;;;;;;;;;;;;;;;;;;;
2022/01/09 13:09:25;;;;;;;;;;;6.20;99.90;;;;;;5049852;28;19920;-93
2022/01/09 13:12:15;;;;;;;;;;;6.20;99.90;;;;;;5034071;28;19920;-92
2022/01/09 13:14:43;;;;;;;;;;;6.30;99.90;;;;;;5048813;28;20290;-92
2022/01/09 13:17:39;;;;;;;;;;;;;;;;;;;;;
2022/01/09 13:20:26;;;;;;;;;;;6.90;99.90;;;;;;5064066;28;20298;-93
2022/01/09 13:23:34;;;;;;;;;;;;;;;;;;;;;
2022/01/09 13:31:55;;;;;;;;;;;;;;;;;;;;;
2022/01/09 13:34:47;;;;;;;;;;;5.60;99.90;;;;;;5036114;28;19921;-93
2022/01/09 13:37:52;;;;;;;;;;;5.50;99.90;;;;;;5004586;28;19931;-91
2022/01/09 13:40:42;;;;;;;;;;;5.10;99.90;;;;;;5035375;28;20280;-91
2022/01/09 13:43:10;;;;;;;;;;;5.90;99.90;;;;;;5036373;28;19929;-92
2022/01/09 13:46:04;;;;;;;;;;;5.60;99.90;;;;;;5020902;28;20383;-91
2022/01/09 13:48:52;;;;;;;;;;;;;;;;;;;;;
2022/01/09 13:52:20;;;;;;;;;;;5.40;99.90;;;;;;5035843;28;19921;-92
2022/01/09 13:55:10;;;;;;;;;;;5.30;99.90;;;;;;4975875;28;19925;-91
2022/01/09 13:58:06;;;;;;;;;;;5.70;99.90;;;;;;5020637;28;19921;-92
2022/01/09 14:00:57;;;;;;;;;;;5.10;99.90;;;;;;5018806;28;20054;-93
2022/01/09 14:06:23;;;;;;;;;;;5.00;99.90;;;;;;5022688;28;20015;-91
2022/01/09 14:08:54;;;;;;;;;;;4.90;99.90;;;;;;5019342;28;19929;-92
2022/01/09 14:11:42;;;;;;;;;;;5.20;99.90;;;;;;5003903;28;19925;-92
2022/01/09 14:14:26;;;;;;;;;;;5.60;99.90;;;;;;5004648;28;19967;-91
2022/01/09 14:17:01;;;;;;;;;;;5.30;99.90;;;;;;5017657;28;19932;-90
2022/01/09 14:19:55;;;;;;;;;;;4.50;99.90;;;;;;5000989;28;20051;-92
2022/01/09 14:22:23;;;;;;;;;;;4.70;99.90;;;;;;4999460;28;20209;-92
2022/01/09 14:25:10;;;;;;;;;;;5.50;99.90;;;;;;4982686;28;19936;-92
2022/01/09 14:27:49;;;;;;;;;;;;;;;;;;;;;
2022/01/09 14:30:30;;;;;;;;;;;4.50;99.90;;;;;;5017490;28;19921;-91
2022/01/09 14:33:17;;;;;;;;;;;;;;;;;;;;;
2022/01/09 14:35:47;;;;;;;;;;;4.50;99.90;;;;;;5015278;28;19925;-91
2022/01/09 14:38:49;;;;;;;;;;;;;;;;;;;;;
2022/01/09 14:41:26;;;;;;;;;;;4.50;99.90;;;;;;5031830;28;19979;-91
2022/01/09 14:43:56;;;;;;;;;;;5.20;99.90;;;;;;5000333;28;19932;-91
2022/01/09 14:46:44;;;;;;;;;;;;;;;;;;;;;
2022/01/09 14:49:32;;;;;;;;;;;4.50;99.90;;;;;;5037673;28;19931;-92
2022/01/09 14:52:25;;;;;;;;;;;;;;;;;;;;;
2022/01/09 14:55:09;;;;;;;;;;;3.70;99.90;;;;;;5000638;28;19921;-92
2022/01/09 14:57:37;;;;;;;;;;;4.60;99.90;;;;;;5000810;28;19921;-92
2022/01/09 15:00:28;;;;;;;;;;;;;;;;;;;;;
2022/01/09 15:03:18;;;;;;;;;;;4.20;99.90;;;;;;5022319;28;19929;-92
2022/01/09 15:05:57;;;;;;;;;;;;;;;;;;;;;
2022/01/09 15:08:59;;;;;;;;;;;3.60;99.90;;;;;;5020554;28;19982;-91
2022/01/09 15:11:37;;;;;;;;;;;;;;;;;;;;;
2022/01/09 15:14:25;;;;;;;;;;;3.90;99.90;;;;;;5034739;28;20346;-91
2022/01/09 15:17:13;;;;;;;;;;;3.50;99.90;;;;;;5002661;28;19924;-91
2022/01/09 15:19:59;;;;;;;;;;;;;;;;;;;;;
2022/01/09 15:23:01;;;;;;;;;;;;;;;;;;;;;
2022/01/09 15:25:43;;;;;;;;;;;;;;;;;;;;;
2022/01/09 15:28:47;;;;;;;;;;;3.40;99.90;;;;;;5019618;28;19943;-92
2022/01/09 15:31:43;;;;;;;;;;;4.60;99.90;;;;;;5024065;28;19944;-92
2022/01/09 15:37:18;;;;;;;;;;;3.50;99.90;;;;;;5020452;28;20280;-91
2022/01/09 15:40:04;;;;;;;;;;;3.00;99.90;;;;;;5010847;28;19979;-92
2022/01/09 15:42:32;;;;;;;;;;;2.90;99.90;;;;;;5002476;28;19928;-92
2022/01/09 15:45:27;;;;;;;;;;;4.70;99.90;;;;;;4986065;28;19935;-93
2022/01/09 15:50:56;;;;;;;;;;;2.40;99.90;;;;;;5004719;28;19933;-92
2022/01/09 15:53:31;;;;;;;;;;;4.10;99.90;;;;;;5002803;28;19921;-92
2022/01/09 15:56:12;;;;;;;;;;;;;;;;;;;;;
2022/01/09 15:58:43;;;;;;;;;;;3.10;99.90;;;;;;5040245;28;19925;-92
2022/01/09 16:01:22;;;;;;;;;;;;;;;;;;;;;
2022/01/09 16:03:50;;;;;;;;;;;3.10;99.90;;;;;;5031679;28;19928;-93
2022/01/09 16:06:23;;;;;;;;;;;3.90;99.90;;;;;;5011282;28;20123;-91
2022/01/09 16:09:08;;;;;;;;;;;;;;;;;;;;;
2022/01/09 16:11:42;;;;;;;;;;;3.20;99.90;;;;;;5047095;28;19971;-92
2022/01/09 16:14:16;;;;;;;;;;;3.50;99.90;;;;;;5010210;28;19921;-92
2022/01/09 16:16:52;;;;;;;;;;;;;;;;;;;;;
2022/01/09 16:19:18;;;;;;;;;;;3.00;99.90;;;;;;5050003;28;19924;-92
2022/01/09 16:21:56;;;;;;;;;;;;;;;;;;;;;
2022/01/09 16:24:25;;;;;;;;;;;3.60;99.90;;;;;;5062679;28;19974;-91
2022/01/09 16:26:56;;;;;;;;;;;3.00;99.90;;;;;;5044465;28;20132;-91
2022/01/09 16:29:34;;;;;;;;;;;4.00;99.90;;;;;;5044845;28;19977;-92
2022/01/09 16:32:20;;;;;;;;;;;3.10;99.90;;;;;;5044823;28;19924;-94
2022/01/09 16:34:47;;;;;;;;;;;3.60;99.90;;;;;;5046088;28;19927;-90
2022/01/09 16:37:15;;;;;;;;;;;4.50;99.90;;;;;;5043905;28;19923;-90
2022/01/09 16:39:41;;;;;;;;;;;2.90;99.90;;;;;;5060526;28;19920;-90
2022/01/09 16:42:07;;;;;;;;;;;2.60;99.90;;;;;;5059988;28;19924;-90
2022/01/09 16:44:33;;;;;;;;;;;2.80;99.90;;;;;;5043598;28;19935;-90
2022/01/09 16:47:01;;;;;;;;;;;2.90;99.90;;;;;;5043495;28;19920;-90
2022/01/09 16:49:30;;;;;;;;;;;3.70;99.90;;;;;;5043374;28;19964;-89
2022/01/09 16:51:57;;;;;;;;;;;3.90;99.90;;;;;;5043904;28;19924;-90
2022/01/09 16:54:36;;;;;;;;;;;;;;;;;;;;;